Time;durP1;ratioP1;P1;durP2;ratioP2;P2;SDS_P1;SDS_P2;PMS_P1;PMS_P2;Temp;Humidity;BMP_temperature;BMP_pressure;BME280_temperature;BME280_humidity;BME280_pressure;Samples;Min_cycle;Max_cycle;Signal;HPM_P1;HPM_P2
2022/07/06 00:01:45;;;;;;;6.63;3.43;;;;;;;;;;4990861;28;20038;-60
2022/07/06 00:04:12;;;;;;;15.60;3.47;;;;;;;;;;4990952;28;20050;-61
2022/07/06 00:06:38;;;;;;;5.80;2.63;;;;;;;;;;4990877;28;20477;-60
2022/07/06 00:09:05;;;;;;;13.27;3.60;;;;;;;;;;4990948;28;20048;-60
2022/07/06 00:11:31;;;;;;;13.37;3.80;;;;;;;;;;4989145;28;20085;-60
2022/07/06 00:13:57;;;;;;;6.40;2.97;;;;;;;;;;4990775;28;20092;-60
2022/07/06 00:16:24;;;;;;;6.90;3.00;;;;;;;;;;4989338;28;20093;-60
2022/07/06 00:18:50;;;;;;;10.37;2.80;;;;;;;;;;4990754;28;20105;-60
2022/07/06 00:21:16;;;;;;;8.40;3.00;;;;;;;;;;4989742;28;20568;-61
2022/07/06 00:23:42;;;;;;;11.63;2.77;;;;;;;;;;4990466;28;20061;-60
2022/07/06 00:26:08;;;;;;;7.03;2.33;;;;;;;;;;4990049;28;20077;-60
2022/07/06 00:28:34;;;;;;;5.37;2.80;;;;;;;;;;4990318;28;20077;-60
2022/07/06 00:31:00;;;;;;;9.73;2.83;;;;;;;;;;4990008;28;20077;-60
2022/07/06 00:33:27;;;;;;;5.27;2.30;;;;;;;;;;4990059;28;20100;-60
2022/07/06 00:35:53;;;;;;;4.97;2.20;;;;;;;;;;4989790;28;20038;-60
2022/07/06 00:38:19;;;;;;;5.70;2.03;;;;;;;;;;4990533;28;20043;-60
2022/07/06 00:40:45;;;;;;;5.50;1.90;;;;;;;;;;4989773;28;20046;-60
2022/07/06 00:43:11;;;;;;;9.73;2.83;;;;;;;;;;4990027;28;20390;-61
2022/07/06 00:45:37;;;;;;;4.63;2.27;;;;;;;;;;4989555;28;20516;-61
2022/07/06 00:48:03;;;;;;;11.17;2.50;;;;;;;;;;4989531;28;20692;-60
2022/07/06 00:50:29;;;;;;;5.87;1.90;;;;;;;;;;4989507;28;20038;-60
2022/07/06 00:52:56;;;;;;;6.47;2.00;;;;;;;;;;4990187;28;20112;-60
2022/07/06 00:55:24;;;;;;;5.97;2.50;;;;;;;;;;4989372;28;20046;-61
2022/07/06 00:57:50;;;;;;;7.10;2.17;;;;;;;;;;4989782;28;20050;-61
2022/07/06 01:00:17;;;;;;;7.80;1.90;;;;;;;;;;4989701;28;20047;-60
2022/07/06 01:02:43;;;;;;;6.60;2.00;;;;;;;;;;4989845;28;20723;-60
2022/07/06 01:05:11;;;;;;;4.90;1.50;;;;;;;;;;4989853;28;20012;-61
2022/07/06 01:07:37;;;;;;;5.43;1.93;;;;;;;;;;4989710;28;20513;-61
2022/07/06 01:10:07;;;;;;;4.63;1.93;;;;;;;;;;4989712;28;20050;-60
2022/07/06 01:12:34;;;;;;;4.47;1.80;;;;;;;;;;4989626;28;20042;-60
2022/07/06 01:15:01;;;;;;;6.07;2.00;;;;;;;;;;4989572;28;20057;-60
2022/07/06 01:17:27;;;;;;;5.87;1.90;;;;;;;;;;4989045;28;20070;-60
2022/07/06 01:19:53;;;;;;;5.13;1.40;;;;;;;;;;4989458;28;20042;-61
2022/07/06 01:22:19;;;;;;;4.30;1.70;;;;;;;;;;4989221;28;20050;-60
2022/07/06 01:24:45;;;;;;;6.17;1.90;;;;;;;;;;4989333;28;20054;-60
2022/07/06 01:27:11;;;;;;;6.50;1.93;;;;;;;;;;4988982;28;20421;-61
2022/07/06 01:29:37;;;;;;;5.77;1.87;;;;;;;;;;4989772;28;20128;-61
2022/07/06 01:32:03;;;;;;;8.53;1.83;;;;;;;;;;4989366;28;20493;-60
2022/07/06 01:34:29;;;;;;;4.80;1.80;;;;;;;;;;4988858;28;20045;-60
2022/07/06 01:36:55;;;;;;;7.00;1.60;;;;;;;;;;4989227;28;20409;-61
2022/07/06 01:39:21;;;;;;;8.03;1.80;;;;;;;;;;4989416;28;20050;-60
2022/07/06 01:41:47;;;;;;;6.20;1.60;;;;;;;;;;4988777;28;20051;-61
2022/07/06 01:44:13;;;;;;;6.27;1.70;;;;;;;;;;4989371;28;20054;-60
2022/07/06 01:46:39;;;;;;;4.97;1.57;;;;;;;;;;4988938;28;20068;-60
2022/07/06 01:49:06;;;;;;;7.47;1.97;;;;;;;;;;4988987;28;20096;-60
2022/07/06 01:51:32;;;;;;;7.20;1.70;;;;;;;;;;4989118;28;20098;-60
2022/07/06 01:53:58;;;;;;;8.97;2.77;;;;;;;;;;4989246;28;20100;-60
2022/07/06 01:56:24;;;;;;;6.70;1.63;;;;;;;;;;4988778;28;20062;-60
2022/07/06 01:58:50;;;;;;;8.20;1.60;;;;;;;;;;4988948;28;20133;-60
2022/07/06 02:01:20;;;;;;;4.87;1.83;;;;;;;;;;4988809;28;20485;-61
2022/07/06 02:03:46;;;;;;;9.13;1.97;;;;;;;;;;4988953;28;20065;-60
2022/07/06 02:06:13;;;;;;;10.03;1.77;;;;;;;;;;4988980;28;20489;-60
2022/07/06 02:08:39;;;;;;;11.70;1.90;;;;;;;;;;4988795;28;20045;-60
2022/07/06 02:11:09;;;;;;;7.73;1.90;;;;;;;;;;4988550;28;20053;-60
2022/07/06 02:13:36;;;;;;;7.43;1.93;;;;;;;;;;4988762;28;20153;-60
2022/07/06 02:16:02;;;;;;;7.17;1.40;;;;;;;;;;4989084;28;20053;-60
2022/07/06 02:18:28;;;;;;;6.17;1.37;;;;;;;;;;4989064;28;20093;-60
2022/07/06 02:20:54;;;;;;;5.60;1.90;;;;;;;;;;4988724;28;20046;-60
2022/07/06 02:23:20;;;;;;;5.27;1.70;;;;;;;;;;4988272;28;20058;-60
2022/07/06 02:25:46;;;;;;;5.73;1.40;;;;;;;;;;4988925;28;20093;-61
2022/07/06 02:28:12;;;;;;;4.10;2.13;;;;;;;;;;4988423;28;20074;-60
2022/07/06 02:30:38;;;;;;;7.17;2.23;;;;;;;;;;4988224;28;20089;-60
2022/07/06 02:33:04;;;;;;;6.40;2.07;;;;;;;;;;4988746;28;20043;-61
2022/07/06 02:35:30;;;;;;;5.57;1.93;;;;;;;;;;4992336;28;20409;-61
2022/07/06 02:37:56;;;;;;;6.80;2.10;;;;;;;;;;4992739;28;20464;-61
2022/07/06 02:40:22;;;;;;;5.57;1.97;;;;;;;;;;4992283;28;20549;-61
2022/07/06 02:42:48;;;;;;;6.27;2.20;;;;;;;;;;4992568;28;20042;-61
2022/07/06 02:45:14;;;;;;;4.97;1.80;;;;;;;;;;4991811;28;20038;-61
2022/07/06 02:47:41;;;;;;;11.23;3.10;;;;;;;;;;4990949;28;20046;-61
2022/07/06 02:50:07;;;;;;;6.57;2.00;;;;;;;;;;4992253;28;20043;-61
2022/07/06 02:52:33;;;;;;;10.03;2.37;;;;;;;;;;4991943;28;20046;-60
2022/07/06 02:54:59;;;;;;;6.60;2.27;;;;;;;;;;4991574;28;20524;-61
2022/07/06 02:57:25;;;;;;;9.83;2.03;;;;;;;;;;4992551;28;20119;-61
2022/07/06 02:59:51;;;;;;;4.70;1.87;;;;;;;;;;4991874;28;20113;-61
2022/07/06 03:02:17;;;;;;;4.10;1.67;;;;;;;;;;4992172;28;20505;-61
2022/07/06 03:04:43;;;;;;;4.70;1.93;;;;;;;;;;4991952;28;20068;-60
2022/07/06 03:07:09;;;;;;;5.93;1.83;;;;;;;;;;4990566;28;20138;-60
2022/07/06 03:09:35;;;;;;;6.17;2.00;;;;;;;;;;4992031;28;20077;-61
2022/07/06 03:12:01;;;;;;;7.37;2.23;;;;;;;;;;4991814;28;20555;-61
2022/07/06 03:14:28;;;;;;;8.80;2.20;;;;;;;;;;4991178;28;20505;-61
2022/07/06 03:16:54;;;;;;;4.47;2.40;;;;;;;;;;4991871;28;20047;-61
2022/07/06 03:19:20;;;;;;;5.40;2.50;;;;;;;;;;4991920;28;20042;-61
2022/07/06 03:21:46;;;;;;;7.10;2.13;;;;;;;;;;4991246;28;20049;-61
2022/07/06 03:24:12;;;;;;;6.20;2.17;;;;;;;;;;4991050;28;20052;-60
2022/07/06 03:26:38;;;;;;;7.27;2.47;;;;;;;;;;4991912;28;20046;-61
2022/07/06 03:29:04;;;;;;;7.80;2.13;;;;;;;;;;4991188;28;20104;-60
2022/07/06 03:31:30;;;;;;;5.17;1.83;;;;;;;;;;4991451;28;20054;-60
2022/07/06 03:33:56;;;;;;;8.53;1.80;;;;;;;;;;4991675;28;20053;-60
2022/07/06 03:36:22;;;;;;;6.80;2.07;;;;;;;;;;4990949;28;20042;-60
2022/07/06 03:38:48;;;;;;;5.73;2.73;;;;;;;;;;4990880;28;20038;-60
2022/07/06 03:41:14;;;;;;;4.90;2.07;;;;;;;;;;4991214;28;20077;-60
2022/07/06 03:43:40;;;;;;;5.23;2.13;;;;;;;;;;4990373;28;20492;-60
2022/07/06 03:46:06;;;;;;;8.83;2.27;;;;;;;;;;4990913;28;20038;-60
2022/07/06 03:48:32;;;;;;;11.03;1.90;;;;;;;;;;4990632;28;20046;-60
2022/07/06 03:50:58;;;;;;;8.50;1.87;;;;;;;;;;4991012;28;20050;-61
2022/07/06 03:53:24;;;;;;;4.93;2.10;;;;;;;;;;4990751;28;20042;-60
2022/07/06 03:58:35;;;;;;;4.67;1.80;;;;;;;;;;4986290;28;20042;-60
2022/07/06 04:01:01;;;;;;;5.80;1.70;;;;;;;;;;4984356;28;20047;-60
2022/07/06 04:03:27;;;;;;;7.23;1.80;;;;;;;;;;4985014;28;20122;-60
2022/07/06 04:05:53;;;;;;;8.03;1.63;;;;;;;;;;4986237;28;20042;-60
2022/07/06 04:08:19;;;;;;;6.40;1.53;;;;;;;;;;4980748;28;20050;-60
2022/07/06 04:10:46;;;;;;;9.73;2.20;;;;;;;;;;4986549;28;20042;-60
2022/07/06 04:13:12;;;;;;;5.27;1.90;;;;;;;;;;4989077;28;20116;-60
2022/07/06 04:15:39;;;;;;;6.80;1.60;;;;;;;;;;4986046;28;20102;-59
2022/07/06 04:18:05;;;;;;;6.80;1.93;;;;;;;;;;4986223;28;20088;-60
2022/07/06 04:20:31;;;;;;;7.27;1.73;;;;;;;;;;4989398;28;20056;-60
2022/07/06 04:22:57;;;;;;;5.20;2.10;;;;;;;;;;4982645;28;20058;-60
2022/07/06 04:25:23;;;;;;;5.60;1.90;;;;;;;;;;4990450;28;20061;-60
2022/07/06 04:27:49;;;;;;;5.17;1.80;;;;;;;;;;4990004;28;20050;-60
2022/07/06 04:30:15;;;;;;;7.27;1.90;;;;;;;;;;4990057;28;20452;-59
2022/07/06 04:32:41;;;;;;;5.23;1.50;;;;;;;;;;4974852;28;20492;-60
2022/07/06 04:35:08;;;;;;;6.97;2.03;;;;;;;;;;4985911;28;20042;-60
2022/07/06 04:37:34;;;;;;;4.93;1.60;;;;;;;;;;4988675;28;20074;-61
2022/07/06 04:40:00;;;;;;;6.53;2.00;;;;;;;;;;4979044;28;20053;-60
2022/07/06 04:42:26;;;;;;;4.63;1.30;;;;;;;;;;4973763;28;20043;-61
2022/07/06 04:44:52;;;;;;;9.10;1.77;;;;;;;;;;4990250;28;20386;-60
2022/07/06 04:47:18;;;;;;;5.10;1.50;;;;;;;;;;4987345;28;20416;-60
2022/07/06 04:49:44;;;;;;;5.77;1.50;;;;;;;;;;4987421;28;20054;-60
2022/07/06 04:52:10;;;;;;;4.33;1.30;;;;;;;;;;4993842;28;20092;-60
2022/07/06 04:54:36;;;;;;;4.57;1.20;;;;;;;;;;4990225;28;20141;-60
2022/07/06 04:57:02;;;;;;;4.70;1.33;;;;;;;;;;4988246;28;20093;-60
2022/07/06 04:59:28;;;;;;;3.37;1.50;;;;;;;;;;4986882;28;20049;-60
2022/07/06 05:01:54;;;;;;;6.97;1.27;;;;;;;;;;4986876;28;20046;-61
2022/07/06 05:04:20;;;;;;;6.83;1.57;;;;;;;;;;4986720;28;20042;-61
2022/07/06 05:06:47;;;;;;;4.00;1.40;;;;;;;;;;4986597;28;20052;-61
2022/07/06 05:09:13;;;;;;;7.73;1.33;;;;;;;;;;4985358;28;20039;-61
2022/07/06 05:11:39;;;;;;;3.70;1.20;;;;;;;;;;4987337;28;20074;-61
2022/07/06 05:14:06;;;;;;;4.60;1.50;;;;;;;;;;4987239;28;20046;-61
2022/07/06 05:16:32;;;;;;;3.40;1.30;;;;;;;;;;4988371;28;20129;-61
2022/07/06 05:18:58;;;;;;;5.20;1.50;;;;;;;;;;4987098;28;20515;-61
2022/07/06 05:21:24;;;;;;;4.60;1.13;;;;;;;;;;4969889;28;20552;-60
2022/07/06 05:23:50;;;;;;;5.20;1.30;;;;;;;;;;4988747;28;20097;-61
2022/07/06 05:26:16;;;;;;;6.87;0.90;;;;;;;;;;4988128;28;20476;-61
2022/07/06 05:28:42;;;;;;;5.83;1.57;;;;;;;;;;4988428;28;20046;-61
2022/07/06 05:31:08;;;;;;;7.30;1.40;;;;;;;;;;4988077;28;20047;-61
2022/07/06 05:33:34;;;;;;;2.90;0.73;;;;;;;;;;4987942;28;20089;-61
2022/07/06 05:36:00;;;;;;;5.33;0.97;;;;;;;;;;4987590;28;20085;-61
2022/07/06 05:38:26;;;;;;;4.63;0.87;;;;;;;;;;4988093;28;20085;-61
2022/07/06 05:40:52;;;;;;;6.57;0.83;;;;;;;;;;4988216;28;20089;-60
2022/07/06 05:43:18;;;;;;;5.23;1.03;;;;;;;;;;4988053;28;20043;-61
2022/07/06 05:45:44;;;;;;;5.33;0.87;;;;;;;;;;4988153;28;20048;-61
2022/07/06 05:50:55;;;;;;;6.93;1.30;;;;;;;;;;4988131;28;20050;-61
2022/07/06 05:53:21;;;;;;;4.00;0.80;;;;;;;;;;4987958;28;20058;-62
2022/07/06 05:55:48;;;;;;;4.77;0.90;;;;;;;;;;4987750;28;20046;-61
2022/07/06 05:58:14;;;;;;;4.00;0.83;;;;;;;;;;4987710;28;20042;-61
2022/07/06 06:00:40;;;;;;;5.10;0.93;;;;;;;;;;4987994;28;20096;-61
2022/07/06 06:03:06;;;;;;;5.97;1.03;;;;;;;;;;4987555;28;20042;-60
2022/07/06 06:05:32;;;;;;;5.17;0.70;;;;;;;;;;4988145;28;20097;-61
2022/07/06 06:07:58;;;;;;;9.10;1.20;;;;;;;;;;4988198;28;20046;-61
2022/07/06 06:10:24;;;;;;;3.10;1.00;;;;;;;;;;4991552;28;20046;-61
2022/07/06 06:12:50;;;;;;;1.97;0.50;;;;;;;;;;4991992;28;20050;-60
2022/07/06 06:15:17;;;;;;;5.77;1.00;;;;;;;;;;4992112;28;20046;-60
2022/07/06 06:17:43;;;;;;;3.00;0.70;;;;;;;;;;4992450;28;20485;-61
2022/07/06 06:20:10;;;;;;;5.73;1.73;;;;;;;;;;4989551;28;20082;-61
2022/07/06 06:22:49;;;;;;;7.27;1.03;;;;;;;;;;4991930;28;20427;-61
2022/07/06 06:25:16;;;;;;;5.40;0.90;;;;;;;;;;4992412;28;20042;-60
2022/07/06 06:27:42;;;;;;;5.60;0.83;;;;;;;;;;4991198;28;20046;-60
2022/07/06 06:30:08;;;;;;;5.77;1.53;;;;;;;;;;4991516;28;20128;-61
2022/07/06 06:32:34;;;;;;;6.57;0.90;;;;;;;;;;4991984;28;20074;-60
2022/07/06 06:35:01;;;;;;;1.63;0.43;;;;;;;;;;5003078;28;20074;-61
2022/07/06 06:37:27;;;;;;;1.53;0.40;;;;;;;;;;5004816;28;20042;-60
2022/07/06 06:39:53;;;;;;;3.73;0.80;;;;;;;;;;4991892;28;20177;-60
2022/07/06 06:42:19;;;;;;;5.20;0.80;;;;;;;;;;4991331;28;20125;-60
2022/07/06 06:44:45;;;;;;;5.10;0.70;;;;;;;;;;4991383;28;20105;-60
2022/07/06 06:47:11;;;;;;;2.07;0.60;;;;;;;;;;4990793;28;20047;-61
2022/07/06 06:49:37;;;;;;;5.57;0.70;;;;;;;;;;4991159;28;20053;-60
2022/07/06 06:52:03;;;;;;;3.57;0.70;;;;;;;;;;4990813;28;20484;-60
2022/07/06 06:54:29;;;;;;;3.50;0.73;;;;;;;;;;4991182;28;20929;-61
2022/07/06 06:56:55;;;;;;;2.60;0.50;;;;;;;;;;4991027;28;20042;-60
2022/07/06 06:59:21;;;;;;;5.90;1.60;;;;;;;;;;4990601;28;20149;-61
2022/07/06 07:01:47;;;;;;;7.13;0.60;;;;;;;;;;4990766;28;20042;-61
2022/07/06 07:04:13;;;;;;;3.47;0.87;;;;;;;;;;4990986;28;20058;-61
2022/07/06 07:06:39;;;;;;;2.57;0.50;;;;;;;;;;4991412;28;20046;-61
2022/07/06 07:09:05;;;;;;;4.33;0.80;;;;;;;;;;4991204;28;20468;-61
2022/07/06 07:11:31;;;;;;;3.40;0.80;;;;;;;;;;4990573;28;20042;-62
2022/07/06 07:13:59;;;;;;;2.37;0.50;;;;;;;;;;4990540;28;20048;-61
2022/07/06 07:16:25;;;;;;;1.40;0.50;;;;;;;;;;4990453;28;20070;-61
2022/07/06 07:18:51;;;;;;;3.50;0.70;;;;;;;;;;4990924;28;20050;-61
2022/07/06 07:21:17;;;;;;;1.57;0.47;;;;;;;;;;4990024;28;20428;-61
2022/07/06 07:23:43;;;;;;;3.47;0.60;;;;;;;;;;4990082;28;20472;-61
2022/07/06 07:26:09;;;;;;;4.87;0.70;;;;;;;;;;4990490;28;20073;-61
2022/07/06 07:28:35;;;;;;;4.47;0.77;;;;;;;;;;4990658;28;20492;-61
2022/07/06 07:31:02;;;;;;;3.57;0.60;;;;;;;;;;4989757;28;20473;-60
2022/07/06 07:33:28;;;;;;;4.60;0.60;;;;;;;;;;4990800;28;20053;-61
2022/07/06 07:35:54;;;;;;;2.67;0.50;;;;;;;;;;4990056;28;20128;-61
2022/07/06 07:38:20;;;;;;;2.70;0.70;;;;;;;;;;4985818;28;20415;-61
2022/07/06 07:40:46;;;;;;;3.67;0.60;;;;;;;;;;4990486;28;20050;-61
2022/07/06 07:43:12;;;;;;;2.63;0.70;;;;;;;;;;4990168;28;20073;-61
2022/07/06 07:45:38;;;;;;;6.23;1.07;;;;;;;;;;4990221;28;20047;-61
2022/07/06 07:48:04;;;;;;;5.03;0.70;;;;;;;;;;4990225;28;20479;-61
2022/07/06 07:50:30;;;;;;;3.17;0.60;;;;;;;;;;4990431;28;20137;-61
2022/07/06 07:52:56;;;;;;;7.90;0.67;;;;;;;;;;4990019;28;20125;-61
2022/07/06 07:55:22;;;;;;;5.37;0.83;;;;;;;;;;4989562;28;20133;-60
2022/07/06 07:57:48;;;;;;;3.43;0.60;;;;;;;;;;4990134;28;20097;-61
2022/07/06 08:00:15;;;;;;;5.27;0.43;;;;;;;;;;4989637;28;20505;-62
2022/07/06 08:02:41;;;;;;;5.37;0.80;;;;;;;;;;4990075;28;20053;-61
2022/07/06 08:05:07;;;;;;;3.50;0.67;;;;;;;;;;4989876;28;20046;-61
2022/07/06 08:07:33;;;;;;;1.40;0.50;;;;;;;;;;4989874;28;20054;-61
2022/07/06 08:09:59;;;;;;;3.57;0.60;;;;;;;;;;4989816;28;20042;-61
2022/07/06 08:12:26;;;;;;;1.57;0.50;;;;;;;;;;4988939;28;20381;-61
2022/07/06 08:14:52;;;;;;;5.00;0.70;;;;;;;;;;4989598;28;20509;-61
2022/07/06 08:17:18;;;;;;;2.63;0.63;;;;;;;;;;4989860;28;20074;-61
2022/07/06 08:19:44;;;;;;;1.87;0.37;;;;;;;;;;4989544;28;20523;-61
2022/07/06 08:22:10;;;;;;;3.27;0.57;;;;;;;;;;4989742;28;20051;-61
2022/07/06 08:24:36;;;;;;;1.53;0.40;;;;;;;;;;4988999;28;20420;-62
2022/07/06 08:27:03;;;;;;;6.37;1.13;;;;;;;;;;4989469;28;20043;-61
2022/07/06 08:29:29;;;;;;;2.57;0.50;;;;;;;;;;4989285;28;20046;-61
2022/07/06 08:31:56;;;;;;;3.90;0.60;;;;;;;;;;4988147;28;20057;-61
2022/07/06 08:34:22;;;;;;;2.80;0.40;;;;;;;;;;4989083;28;21442;-60
2022/07/06 08:36:48;;;;;;;2.77;0.60;;;;;;;;;;4988965;28;20562;-61
2022/07/06 08:39:14;;;;;;;3.67;0.70;;;;;;;;;;4988271;28;20543;-61
2022/07/06 08:41:41;;;;;;;2.43;0.50;;;;;;;;;;4989081;28;20057;-61
2022/07/06 08:44:09;;;;;;;1.47;0.40;;;;;;;;;;4988881;28;20049;-61
2022/07/06 08:46:36;;;;;;;2.97;0.50;;;;;;;;;;4988256;28;20072;-61
2022/07/06 08:49:02;;;;;;;3.90;0.80;;;;;;;;;;4989130;28;20045;-61
2022/07/06 08:51:28;;;;;;;2.70;0.60;;;;;;;;;;4989131;28;20477;-61
2022/07/06 08:53:55;;;;;;;2.53;0.50;;;;;;;;;;4988758;28;20493;-60
2022/07/06 08:56:21;;;;;;;3.73;0.50;;;;;;;;;;4988637;28;20050;-61
2022/07/06 08:58:47;;;;;;;3.07;0.67;;;;;;;;;;4988593;28;20050;-61
2022/07/06 09:01:13;;;;;;;2.07;0.50;;;;;;;;;;4988906;28;20184;-61
2022/07/06 09:03:40;;;;;;;1.73;0.50;;;;;;;;;;4988863;28;20050;-61
2022/07/06 09:06:07;;;;;;;2.50;0.47;;;;;;;;;;4988587;28;20050;-61
2022/07/06 09:08:33;;;;;;;2.60;0.30;;;;;;;;;;4988447;28;20054;-61
2022/07/06 09:10:59;;;;;;;1.80;0.43;;;;;;;;;;4988697;28;20057;-60
2022/07/06 09:13:25;;;;;;;3.53;0.60;;;;;;;;;;4988788;28;20053;-61
2022/07/06 09:15:51;;;;;;;1.67;0.50;;;;;;;;;;4988983;28;20507;-61
2022/07/06 09:18:17;;;;;;;4.23;0.60;;;;;;;;;;4988680;28;20052;-61
2022/07/06 09:20:43;;;;;;;3.87;0.40;;;;;;;;;;4988483;28;20094;-61
2022/07/06 09:23:10;;;;;;;5.77;0.77;;;;;;;;;;4988480;28;20054;-61
2022/07/06 09:25:36;;;;;;;4.03;0.50;;;;;;;;;;4988739;28;20500;-61
2022/07/06 09:28:05;;;;;;;2.63;0.60;;;;;;;;;;4988310;28;20057;-61
2022/07/06 09:30:31;;;;;;;1.33;0.30;;;;;;;;;;4988670;28;20477;-61
2022/07/06 09:32:58;;;;;;;3.70;0.60;;;;;;;;;;4988378;28;20054;-61
2022/07/06 09:35:25;;;;;;;2.23;0.60;;;;;;;;;;4988115;28;20081;-61
2022/07/06 09:38:08;;;;;;;2.70;0.50;;;;;;;;;;4988521;28;20042;-61
2022/07/06 09:40:38;;;;;;;2.75;0.82;;;;;;;;;;4988782;28;20053;-61
2022/07/06 09:43:08;;;;;;;3.50;0.52;;;;;;;;;;4988025;28;20840;-61
2022/07/06 09:45:38;;;;;;;3.33;0.32;;;;;;;;;;4987916;28;20092;-61
2022/07/06 09:48:15;;;;;;;3.08;0.88;;;;;;;;;;4988330;28;20057;-61
2022/07/06 09:50:44;;;;;;;3.03;0.38;;;;;;;;;;4988311;28;20049;-61
2022/07/06 09:53:11;;;;;;;3.20;0.52;;;;;;;;;;4988420;28;20137;-61
2022/07/06 09:55:37;;;;;;;1.35;0.25;;;;;;;;;;4988632;28;20039;-61
2022/07/06 09:58:04;;;;;;;2.35;0.90;;;;;;;;;;4988229;28;20116;-61
2022/07/06 10:00:30;;;;;;;4.97;0.60;;;;;;;;;;4987810;28;20528;-60
2022/07/06 10:02:56;;;;;;;4.13;0.60;;;;;;;;;;4988152;28;20042;-61
2022/07/06 10:05:26;;;;;;;3.80;0.68;;;;;;;;;;4987964;28;20553;-60
2022/07/06 10:07:54;;;;;;;3.50;0.57;;;;;;;;;;4988513;28;20828;-61
2022/07/06 10:10:20;;;;;;;3.67;0.90;;;;;;;;;;4988181;28;20568;-61
2022/07/06 10:12:49;;;;;;;2.05;0.52;;;;;;;;;;4987915;28;20046;-61
2022/07/06 10:15:15;;;;;;;1.77;0.40;;;;;;;;;;4987688;28;20054;-61
2022/07/06 10:17:41;;;;;;;2.08;0.40;;;;;;;;;;4987848;28;20047;-60
2022/07/06 10:20:08;;;;;;;4.15;0.65;;;;;;;;;;4988312;28;20049;-61
2022/07/06 10:22:35;;;;;;;3.85;0.90;;;;;;;;;;4987789;28;20046;-61
2022/07/06 10:25:02;;;;;;;3.58;0.70;;;;;;;;;;4987690;28;20058;-61
2022/07/06 10:27:29;;;;;;;3.78;0.88;;;;;;;;;;4987810;28;20047;-61
2022/07/06 10:29:55;;;;;;;3.33;0.57;;;;;;;;;;4987604;28;20480;-61
2022/07/06 10:32:23;;;;;;;1.83;0.40;;;;;;;;;;4987827;28;20054;-61
2022/07/06 10:34:49;;;;;;;2.15;0.40;;;;;;;;;;4987481;28;20050;-61
2022/07/06 10:37:41;;;;;;;2.25;0.80;;;;;;;;;;4987831;28;20053;-61
2022/07/06 10:42:59;;;;;;;3.03;0.60;;;;;;;;;;4988190;28;20489;-61
2022/07/06 10:45:28;;;;;;;5.97;0.60;;;;;;;;;;4987493;28;20054;-61
2022/07/06 10:48:13;;;;;;;2.05;0.60;;;;;;;;;;4987207;28;20157;-61
2022/07/06 10:50:39;;;;;;;3.63;0.60;;;;;;;;;;4987718;28;20062;-62
2022/07/06 10:53:11;;;;;;;4.28;0.30;;;;;;;;;;4986608;28;20511;-60
2022/07/06 10:55:37;;;;;;;;;;;;;;;;;;4989870;28;20444;-61
2022/07/06 10:58:04;;;;;;;1.27;0.32;;;;;;;;;;4989397;28;19933;-61
2022/07/06 11:00:51;;;;;;;5.20;0.60;;;;;;;;;;4991386;28;20078;-61
2022/07/06 11:03:32;;;;;;;3.75;0.57;;;;;;;;;;4972047;28;20058;-61
2022/07/06 11:05:59;;;;;;;4.13;0.93;;;;;;;;;;4981413;28;20364;-61
2022/07/06 11:08:45;;;;;;;1.63;0.55;;;;;;;;;;4989415;28;20046;-61
2022/07/06 11:11:19;;;;;;;4.75;1.23;;;;;;;;;;4989518;28;20042;-61
2022/07/06 11:13:49;;;;;;;1.58;0.70;;;;;;;;;;4989677;28;20448;-61
2022/07/06 11:16:19;;;;;;;3.80;1.25;;;;;;;;;;4988689;28;20046;-60
2022/07/06 11:18:49;;;;;;;3.40;0.50;;;;;;;;;;4989182;28;20508;-61
2022/07/06 11:21:19;;;;;;;3.35;0.65;;;;;;;;;;4990593;28;20133;-60
2022/07/06 11:23:49;;;;;;;4.07;0.70;;;;;;;;;;4990349;28;20093;-60
2022/07/06 11:26:16;;;;;;;2.22;0.45;;;;;;;;;;4990282;28;20101;-60
2022/07/06 11:28:42;;;;;;;2.78;0.60;;;;;;;;;;4990029;28;20046;-60
2022/07/06 11:31:08;;;;;;;4.20;0.68;;;;;;;;;;4991019;28;20081;-61
2022/07/06 11:33:34;;;;;;;3.83;0.50;;;;;;;;;;4990513;28;20042;-61
2022/07/06 11:36:13;;;;;;;2.80;0.50;;;;;;;;;;4990210;28;20047;-61
2022/07/06 11:38:39;;;;;;;2.65;0.63;;;;;;;;;;4990066;28;20129;-60
2022/07/06 11:41:05;;;;;;;3.00;0.68;;;;;;;;;;4990225;28;20455;-61
2022/07/06 11:43:31;;;;;;;3.83;0.85;;;;;;;;;;4990233;28;20077;-61
2022/07/06 11:45:57;;;;;;;4.78;0.60;;;;;;;;;;4990358;28;20082;-60
2022/07/06 11:48:23;;;;;;;7.07;0.60;;;;;;;;;;4989932;28;20401;-61
2022/07/06 11:51:00;;;;;;;4.35;0.60;;;;;;;;;;4990219;28;20113;-60
2022/07/06 11:53:26;;;;;;;4.45;0.60;;;;;;;;;;4989537;28;20141;-61
2022/07/06 11:55:52;;;;;;;1.58;0.63;;;;;;;;;;4990149;28;20042;-60
2022/07/06 11:58:22;;;;;;;1.90;0.63;;;;;;;;;;4990192;28;20587;-60
2022/07/06 12:01:08;;;;;;;3.03;0.80;;;;;;;;;;4989256;28;20108;-61
2022/07/06 12:03:35;;;;;;;4.07;1.17;;;;;;;;;;4989945;28;20472;-60
2022/07/06 12:06:12;;;;;;;4.20;0.60;;;;;;;;;;4990012;28;20054;-60
2022/07/06 12:08:45;;;;;;;2.85;0.60;;;;;;;;;;4989862;28;20424;-60
2022/07/06 12:11:11;;;;;;;2.88;0.60;;;;;;;;;;4989734;28;20449;-61
2022/07/06 12:13:40;;;;;;;2.83;0.82;;;;;;;;;;4989075;28;20096;-60
2022/07/06 12:16:13;;;;;;;2.42;0.52;;;;;;;;;;4989199;28;20053;-60
2022/07/06 12:18:39;;;;;;;1.92;0.70;;;;;;;;;;4989636;28;20046;-60
2022/07/06 12:21:09;;;;;;;1.80;0.50;;;;;;;;;;4989617;28;20113;-60
2022/07/06 12:23:38;;;;;;;1.80;0.70;;;;;;;;;;4988800;28;20055;-61
2022/07/06 12:26:04;;;;;;;5.47;0.73;;;;;;;;;;4989109;28;20333;-62
2022/07/06 12:28:30;;;;;;;4.00;0.60;;;;;;;;;;4989611;28;20062;-61
2022/07/06 12:30:56;;;;;;;1.80;0.40;;;;;;;;;;4989585;28;20078;-62
2022/07/06 12:33:23;;;;;;;3.05;0.68;;;;;;;;;;4988754;28;20580;-59
2022/07/06 12:35:49;;;;;;;1.70;0.60;;;;;;;;;;4989851;28;20057;-59
2022/07/06 12:38:22;;;;;;;1.88;0.50;;;;;;;;;;4989413;28;20072;-59
2022/07/06 12:40:48;;;;;;;3.10;0.85;;;;;;;;;;4989174;28;20571;-59
2022/07/06 12:43:14;;;;;;;4.13;0.90;;;;;;;;;;4988809;28;20053;-60
2022/07/06 12:45:40;;;;;;;3.58;0.73;;;;;;;;;;4989120;28;20042;-59
2022/07/06 12:48:06;;;;;;;1.83;0.80;;;;;;;;;;4988714;28;20046;-59
2022/07/06 12:50:36;;;;;;;4.30;0.63;;;;;;;;;;4988557;28;20086;-59
2022/07/06 12:53:03;;;;;;;4.07;0.77;;;;;;;;;;4988567;28;20146;-59
2022/07/06 12:55:30;;;;;;;5.68;0.90;;;;;;;;;;4989212;28;20052;-59
2022/07/06 12:57:56;;;;;;;2.08;0.60;;;;;;;;;;4988867;28;20062;-59
2022/07/06 13:00:23;;;;;;;4.03;0.80;;;;;;;;;;4988475;28;20436;-59
2022/07/06 13:02:53;;;;;;;2.83;0.80;;;;;;;;;;4988535;28;20052;-59
2022/07/06 13:05:27;;;;;;;2.97;0.80;;;;;;;;;;4988368;28;20078;-59
2022/07/06 13:07:55;;;;;;;4.93;0.80;;;;;;;;;;4997053;28;20134;-59
2022/07/06 13:10:22;;;;;;;3.78;1.00;;;;;;;;;;4987189;28;20116;-59
2022/07/06 13:12:48;;;;;;;4.70;0.52;;;;;;;;;;4987259;28;20049;-62
2022/07/06 13:15:14;;;;;;;1.60;0.45;;;;;;;;;;4989150;28;20553;-59
2022/07/06 13:17:40;;;;;;;2.40;0.63;;;;;;;;;;4988660;28;20050;-59
2022/07/06 13:20:07;;;;;;;4.13;1.02;;;;;;;;;;4989430;28;20049;-59
2022/07/06 13:22:33;;;;;;;3.60;0.85;;;;;;;;;;4988878;28;20358;-59
2022/07/06 13:25:00;;;;;;;3.03;0.55;;;;;;;;;;4988674;28;20572;-59
2022/07/06 13:27:26;;;;;;;1.40;0.40;;;;;;;;;;4985249;28;20467;-58
2022/07/06 13:29:52;;;;;;;2.80;0.63;;;;;;;;;;4988147;28;20090;-61
2022/07/06 13:32:18;;;;;;;4.68;1.50;;;;;;;;;;4988887;28;20088;-61
2022/07/06 13:34:44;;;;;;;2.67;0.40;;;;;;;;;;4988615;28;20575;-59
2022/07/06 13:37:10;;;;;;;3.10;0.82;;;;;;;;;;4988491;28;20129;-59
2022/07/06 13:39:36;;;;;;;2.47;0.60;;;;;;;;;;4987642;28;20170;-59
2022/07/06 13:42:02;;;;;;;2.83;0.63;;;;;;;;;;4987963;28;20129;-59
2022/07/06 13:44:28;;;;;;;1.25;0.50;;;;;;;;;;4987028;28;20042;-59
2022/07/06 13:46:54;;;;;;;1.77;0.50;;;;;;;;;;4988588;28;20042;-58
2022/07/06 13:49:20;;;;;;;3.72;0.70;;;;;;;;;;4988602;28;20038;-59
2022/07/06 13:51:47;;;;;;;2.95;0.50;;;;;;;;;;4988727;28;20447;-59
2022/07/06 13:54:13;;;;;;;5.40;1.40;;;;;;;;;;4987525;28;20501;-59
2022/07/06 13:56:39;;;;;;;5.07;2.20;;;;;;;;;;4987450;28;20109;-60
2022/07/06 13:59:05;;;;;;;3.72;1.00;;;;;;;;;;4984938;28;20042;-61
2022/07/06 14:01:32;;;;;;;3.92;0.80;;;;;;;;;;4988474;28;20054;-62
2022/07/06 14:03:58;;;;;;;8.40;3.85;;;;;;;;;;4980733;28;20050;-61
2022/07/06 14:06:24;;;;;;;3.00;0.88;;;;;;;;;;4987583;28;20053;-61
2022/07/06 14:08:51;;;;;;;2.85;0.80;;;;;;;;;;4987919;28;20053;-61
2022/07/06 14:11:17;;;;;;;2.78;0.80;;;;;;;;;;4988870;28;20580;-61
2022/07/06 14:13:43;;;;;;;1.30;0.57;;;;;;;;;;4988366;28;20070;-61
2022/07/06 14:16:09;;;;;;;1.95;0.60;;;;;;;;;;4989123;28;20050;-60
2022/07/06 14:18:35;;;;;;;3.67;1.15;;;;;;;;;;4988675;28;20061;-61
2022/07/06 14:21:03;;;;;;;4.90;1.88;;;;;;;;;;4988841;28;20517;-61
2022/07/06 14:23:29;;;;;;;2.30;1.00;;;;;;;;;;4988021;28;20069;-60
2022/07/06 14:25:56;;;;;;;3.60;0.60;;;;;;;;;;4988872;28;20062;-61
2022/07/06 14:28:22;;;;;;;2.25;0.82;;;;;;;;;;4988860;28;20050;-60
2022/07/06 14:30:48;;;;;;;2.40;0.68;;;;;;;;;;4990853;28;20056;-61
2022/07/06 14:33:14;;;;;;;2.37;0.70;;;;;;;;;;4992235;28;20050;-62
2022/07/06 14:35:42;;;;;;;5.13;0.90;;;;;;;;;;4991675;28;20042;-61
2022/07/06 14:38:09;;;;;;;2.30;0.57;;;;;;;;;;4992328;28;20113;-61
2022/07/06 14:40:36;;;;;;;2.00;0.57;;;;;;;;;;4992039;28;20050;-61
2022/07/06 14:43:02;;;;;;;3.10;1.30;;;;;;;;;;4989904;28;20076;-61
2022/07/06 14:45:28;;;;;;;2.90;0.80;;;;;;;;;;4990417;28;20428;-61
2022/07/06 14:47:55;;;;;;;3.30;0.80;;;;;;;;;;4992259;28;20046;-61
2022/07/06 14:50:23;;;;;;;3.70;0.80;;;;;;;;;;4991562;28;20137;-61